Hauptseite
METAR-TAF:

METAR-TAF

Flughäfen :

Nikola-Tesla-Flughafen Belgrad

Belgrad, Serbien

Breite: 44-49N, Länge: 020-17E, Höhe: 96 m

Beobachtung

Neuester Wetterbericht von vor 37 Minuten, um 21:30 UTC
Wind 3 kt aus Nord
Temperatur 10°C
Luftfeuchtigkeit 37%
Luftdruck 1025 hPa
Sichtweite 10 km oder mehr
keine Wolken unter 1500 m und keine Kumulonimbus oder Gewitterwolken

METAR: LYBE 082130Z 35003KT CAVOK 10/M04 Q1025 NOSIG

Zeit: 00:07 (22:07 UTC)

Prognose

Neuester Wetterbericht von vor 5 Stunden und 7 Minuten, um 17:00 UTC
Gültige Prognose vom 08 um 18 UTC bis 09 um 18 UTC
Wind 5 kt aus Nordost
Sichtweite 10 km oder mehr
keine Wolken unter 1500 m und keine Kumulonimbus oder Gewitterwolken

TAF: LYBE 081700Z 0818/0918 05005KT CAVOK TX23/0913Z TN05/0904Z

Wetterbeobachtungen und Prognosen von mehr als 4000 Flughäfen (METAR und TAF Bericht).

Die verfügbaren Stationen werden durch gelbe und rote Markierungen auf der Karte dargestellt.

Führen Sie die Maus auf sie, um den Namen der Station zu sehen.

Darauf klicken, um die Beobachtung von Wetterbeobachtungen und Prognosen zu sehen.

Um die Karte zu ändern : klicken Sie auf den grünen Tasten mit einem schwarzen Kreuz Zum Vergrößern, auf den grünen Button mit einem Gedankenstrich zu verkleinern, oder auf die grünen Pfeile für benachbarte Karten.


METAR-TAF: